Terminal Aerodrome Forecast
Issued by NWS Cleveland, OH

Home | Current Version | Previous Version | Text Only | Print | Product List | Glossary On
Versions: 1 2 3 4 5 6 7 8 9 10 11 12 13 14 15 16 17 18 19 20 21 22 23 24 25 26 27
000
FTUS41 KCLE 290859 AAB
TAFCLE
TAF AMD
KCLE 290859Z 2909/3012 02004KT P6SM OVC035
      TEMPO 2909/2912 4SM BR OVC012
     FM291200 04006KT P6SM VCSH OVC008
     FM291500 03008KT 5SM -SHRA OVC008
     FM292000 03009KT P6SM OVC012
     FM300000 05007KT P6SM BKN020
     FM300600 06008KT P6SM BKN007=

USA.gov is the U.S. government's official web portal to all federal, state and local government web resources and services.